EBZH weather

Kiewit Airfield Hasselt
Hasselt, Limburg, Belgium

Public forecast

Using degrees Celsius for public forecast. Weather courtesy of forecast.io.

METAR (pilot weather report)

Closest report is Schaffen Airport, 11.8 nm (21.9 km) W. Retrieved 2019/04/23 23:25 UTC (15 minutes ago):

EBDT 232325Z AUTO 15004KT 9999 BKN180/// BKN240/// 15/08 Q0997 BLU

TAF (pilot weather forecast)

Forecast is more than 12 hours old.

Closest forecast is Schaffen Airport, 11.8 nm (21.9 km) W. Retrieved 2019/03/21 19:00 UTC (1 month ago):

TAF EBDT 211541Z 2119/2207 04005KT 9999 SKC BECMG 2121/2123 5000 BR BECMG 2122/2124 07003KT 3000 BR BECMG 2201/2203 10003KT 0700 FG